sensor_id;sensor_type;location;lat;lon;timestamp;P1;durP1;ratioP1;P2;durP2;ratioP2
21546;SDS011;41275;51.912;4.388;2023-04-25T00:03:07;14.87;;;2.80;;
21546;SDS011;41275;51.912;4.388;2023-04-25T00:08:30;15.32;;;2.90;;
21546;SDS011;41275;51.912;4.388;2023-04-25T00:13:51;18.98;;;3.47;;
21546;SDS011;41275;51.912;4.388;2023-04-25T00:19:12;13.50;;;3.08;;
21546;SDS011;41275;51.912;4.388;2023-04-25T00:24:34;14.35;;;2.58;;
21546;SDS011;41275;51.912;4.388;2023-04-25T00:29:55;11.25;;;2.05;;
21546;SDS011;41275;51.912;4.388;2023-04-25T00:35:16;12.73;;;2.28;;
21546;SDS011;41275;51.912;4.388;2023-04-25T00:40:38;11.27;;;2.53;;
21546;SDS011;41275;51.912;4.388;2023-04-25T00:45:59;9.65;;;2.28;;
21546;SDS011;41275;51.912;4.388;2023-04-25T00:51:21;14.35;;;2.92;;
21546;SDS011;41275;51.912;4.388;2023-04-25T00:56:43;13.07;;;2.50;;
21546;SDS011;41275;51.912;4.388;2023-04-25T01:02:05;12.47;;;2.07;;
21546;SDS011;41275;51.912;4.388;2023-04-25T01:07:28;13.80;;;2.70;;
21546;SDS011;41275;51.912;4.388;2023-04-25T01:12:49;16.40;;;2.58;;
21546;SDS011;41275;51.912;4.388;2023-04-25T01:18:10;13.60;;;2.50;;
21546;SDS011;41275;51.912;4.388;2023-04-25T01:23:32;13.98;;;2.50;;
21546;SDS011;41275;51.912;4.388;2023-04-25T01:28:54;9.18;;;2.67;;
21546;SDS011;41275;51.912;4.388;2023-04-25T01:34:15;9.30;;;2.03;;
21546;SDS011;41275;51.912;4.388;2023-04-25T01:39:36;7.10;;;1.93;;
21546;SDS011;41275;51.912;4.388;2023-04-25T01:44:58;9.30;;;2.40;;
21546;SDS011;41275;51.912;4.388;2023-04-25T01:50:19;14.93;;;2.75;;
21546;SDS011;41275;51.912;4.388;2023-04-25T01:55:41;11.05;;;2.58;;
21546;SDS011;41275;51.912;4.388;2023-04-25T02:01:02;10.80;;;1.70;;
21546;SDS011;41275;51.912;4.388;2023-04-25T02:06:23;11.53;;;1.80;;
21546;SDS011;41275;51.912;4.388;2023-04-25T02:11:44;7.00;;;1.87;;
21546;SDS011;41275;51.912;4.388;2023-04-25T02:17:05;11.32;;;1.70;;
21546;SDS011;41275;51.912;4.388;2023-04-25T02:22:27;12.18;;;1.90;;
21546;SDS011;41275;51.912;4.388;2023-04-25T02:27:51;7.93;;;1.67;;
21546;SDS011;41275;51.912;4.388;2023-04-25T02:33:12;8.37;;;1.70;;
21546;SDS011;41275;51.912;4.388;2023-04-25T02:38:33;12.20;;;2.20;;
21546;SDS011;41275;51.912;4.388;2023-04-25T02:43:54;6.70;;;1.70;;
21546;SDS011;41275;51.912;4.388;2023-04-25T02:49:16;9.40;;;2.03;;
21546;SDS011;41275;51.912;4.388;2023-04-25T02:54:37;8.40;;;1.73;;
21546;SDS011;41275;51.912;4.388;2023-04-25T02:59:59;8.43;;;2.17;;
21546;SDS011;41275;51.912;4.388;2023-04-25T03:05:20;8.38;;;1.55;;
21546;SDS011;41275;51.912;4.388;2023-04-25T03:10:42;8.65;;;1.98;;
21546;SDS011;41275;51.912;4.388;2023-04-25T03:16:03;12.77;;;1.93;;
21546;SDS011;41275;51.912;4.388;2023-04-25T03:21:25;11.05;;;2.20;;
21546;SDS011;41275;51.912;4.388;2023-04-25T03:26:47;12.43;;;1.80;;
21546;SDS011;41275;51.912;4.388;2023-04-25T03:32:08;13.50;;;2.13;;
21546;SDS011;41275;51.912;4.388;2023-04-25T03:37:29;10.93;;;2.17;;
21546;SDS011;41275;51.912;4.388;2023-04-25T03:42:50;7.93;;;1.75;;
21546;SDS011;41275;51.912;4.388;2023-04-25T03:48:12;9.18;;;1.52;;
21546;SDS011;41275;51.912;4.388;2023-04-25T03:53:33;6.63;;;1.30;;
21546;SDS011;41275;51.912;4.388;2023-04-25T03:58:54;8.80;;;1.70;;
21546;SDS011;41275;51.912;4.388;2023-04-25T04:04:15;7.40;;;1.42;;
21546;SDS011;41275;51.912;4.388;2023-04-25T04:09:36;7.47;;;1.80;;
21546;SDS011;41275;51.912;4.388;2023-04-25T04:14:57;6.27;;;1.23;;
21546;SDS011;41275;51.912;4.388;2023-04-25T04:20:19;5.50;;;1.27;;
21546;SDS011;41275;51.912;4.388;2023-04-25T04:25:40;6.30;;;1.25;;
21546;SDS011;41275;51.912;4.388;2023-04-25T04:31:02;6.50;;;1.40;;
21546;SDS011;41275;51.912;4.388;2023-04-25T04:36:24;4.88;;;1.45;;
21546;SDS011;41275;51.912;4.388;2023-04-25T04:41:47;6.53;;;1.77;;
21546;SDS011;41275;51.912;4.388;2023-04-25T04:47:08;8.20;;;1.45;;
21546;SDS011;41275;51.912;4.388;2023-04-25T04:52:31;8.50;;;2.00;;
21546;SDS011;41275;51.912;4.388;2023-04-25T04:57:52;7.50;;;2.03;;
21546;SDS011;41275;51.912;4.388;2023-04-25T05:03:13;7.18;;;1.98;;
21546;SDS011;41275;51.912;4.388;2023-04-25T05:08:35;8.13;;;1.60;;
21546;SDS011;41275;51.912;4.388;2023-04-25T05:13:57;8.60;;;2.00;;
21546;SDS011;41275;51.912;4.388;2023-04-25T05:19:18;7.73;;;1.70;;
21546;SDS011;41275;51.912;4.388;2023-04-25T05:24:39;8.47;;;1.57;;
21546;SDS011;41275;51.912;4.388;2023-04-25T05:30:00;8.73;;;1.60;;
21546;SDS011;41275;51.912;4.388;2023-04-25T05:35:22;8.88;;;1.65;;
21546;SDS011;41275;51.912;4.388;2023-04-25T05:40:43;9.02;;;1.38;;
21546;SDS011;41275;51.912;4.388;2023-04-25T05:51:55;5.70;;;0.90;;
21546;SDS011;41275;51.912;4.388;2023-04-25T05:57:21;8.85;;;1.10;;
21546;SDS011;41275;51.912;4.388;2023-04-25T06:02:46;7.78;;;1.38;;
21546;SDS011;41275;51.912;4.388;2023-04-25T06:08:07;6.13;;;1.23;;
21546;SDS011;41275;51.912;4.388;2023-04-25T06:13:29;5.07;;;1.10;;
21546;SDS011;41275;51.912;4.388;2023-04-25T06:18:50;5.80;;;1.17;;
21546;SDS011;41275;51.912;4.388;2023-04-25T06:24:16;8.37;;;1.30;;
21546;SDS011;41275;51.912;4.388;2023-04-25T06:29:38;8.10;;;1.25;;
21546;SDS011;41275;51.912;4.388;2023-04-25T06:34:59;6.45;;;0.88;;
21546;SDS011;41275;51.912;4.388;2023-04-25T06:40:20;6.72;;;1.23;;
21546;SDS011;41275;51.912;4.388;2023-04-25T06:45:42;7.55;;;1.10;;
21546;SDS011;41275;51.912;4.388;2023-04-25T06:51:03;9.13;;;1.37;;
21546;SDS011;41275;51.912;4.388;2023-04-25T06:56:24;6.33;;;1.43;;
21546;SDS011;41275;51.912;4.388;2023-04-25T07:01:45;7.60;;;1.37;;
21546;SDS011;41275;51.912;4.388;2023-04-25T07:07:06;7.00;;;1.27;;
21546;SDS011;41275;51.912;4.388;2023-04-25T07:12:28;7.13;;;1.37;;
21546;SDS011;41275;51.912;4.388;2023-04-25T07:17:49;6.63;;;1.30;;
21546;SDS011;41275;51.912;4.388;2023-04-25T07:23:10;5.43;;;1.10;;
21546;SDS011;41275;51.912;4.388;2023-04-25T07:28:31;6.63;;;1.30;;
21546;SDS011;41275;51.912;4.388;2023-04-25T07:33:52;6.13;;;1.03;;
21546;SDS011;41275;51.912;4.388;2023-04-25T07:39:14;5.07;;;0.90;;
21546;SDS011;41275;51.912;4.388;2023-04-25T07:44:35;6.20;;;0.93;;
21546;SDS011;41275;51.912;4.388;2023-04-25T07:49:59;4.90;;;1.07;;
21546;SDS011;41275;51.912;4.388;2023-04-25T07:55:21;4.30;;;1.10;;
21546;SDS011;41275;51.912;4.388;2023-04-25T08:00:42;6.10;;;0.90;;
21546;SDS011;41275;51.912;4.388;2023-04-25T08:06:03;6.07;;;0.90;;
21546;SDS011;41275;51.912;4.388;2023-04-25T08:11:25;6.93;;;0.98;;
21546;SDS011;41275;51.912;4.388;2023-04-25T08:16:46;5.30;;;0.80;;
21546;SDS011;41275;51.912;4.388;2023-04-25T08:22:08;9.25;;;1.10;;
21546;SDS011;41275;51.912;4.388;2023-04-25T08:27:29;5.88;;;1.17;;
21546;SDS011;41275;51.912;4.388;2023-04-25T08:32:50;2.70;;;0.70;;
21546;SDS011;41275;51.912;4.388;2023-04-25T08:38:12;2.95;;;0.52;;
21546;SDS011;41275;51.912;4.388;2023-04-25T08:43:33;5.00;;;0.70;;
21546;SDS011;41275;51.912;4.388;2023-04-25T08:48:56;4.87;;;0.57;;
21546;SDS011;41275;51.912;4.388;2023-04-25T08:54:23;5.53;;;0.70;;
21546;SDS011;41275;51.912;4.388;2023-04-25T08:59:48;2.35;;;0.70;;
21546;SDS011;41275;51.912;4.388;2023-04-25T09:05:10;3.75;;;0.70;;
21546;SDS011;41275;51.912;4.388;2023-04-25T09:10:34;9.35;;;1.13;;
21546;SDS011;41275;51.912;4.388;2023-04-25T09:15:56;6.00;;;0.63;;
21546;SDS011;41275;51.912;4.388;2023-04-25T09:21:21;4.67;;;0.80;;
21546;SDS011;41275;51.912;4.388;2023-04-25T09:26:43;2.20;;;0.60;;
21546;SDS011;41275;51.912;4.388;2023-04-25T09:32:15;4.75;;;0.68;;
21546;SDS011;41275;51.912;4.388;2023-04-25T09:37:40;4.60;;;0.70;;
21546;SDS011;41275;51.912;4.388;2023-04-25T09:43:01;4.30;;;0.90;;
21546;SDS011;41275;51.912;4.388;2023-04-25T09:48:24;7.07;;;0.95;;
21546;SDS011;41275;51.912;4.388;2023-04-25T09:53:51;4.93;;;0.75;;
21546;SDS011;41275;51.912;4.388;2023-04-25T09:59:21;5.70;;;0.80;;
21546;SDS011;41275;51.912;4.388;2023-04-25T10:04:44;4.72;;;0.80;;
21546;SDS011;41275;51.912;4.388;2023-04-25T10:10:08;7.07;;;1.00;;
21546;SDS011;41275;51.912;4.388;2023-04-25T10:15:33;6.47;;;1.08;;
21546;SDS011;41275;51.912;4.388;2023-04-25T10:20:56;4.40;;;0.90;;
21546;SDS011;41275;51.912;4.388;2023-04-25T10:26:21;5.45;;;0.95;;
21546;SDS011;41275;51.912;4.388;2023-04-25T10:31:45;6.07;;;1.00;;
21546;SDS011;41275;51.912;4.388;2023-04-25T10:37:08;4.30;;;0.70;;
21546;SDS011;41275;51.912;4.388;2023-04-25T10:42:31;6.43;;;0.88;;
21546;SDS011;41275;51.912;4.388;2023-04-25T10:47:52;6.43;;;0.88;;
21546;SDS011;41275;51.912;4.388;2023-04-25T10:53:15;5.25;;;0.88;;
21546;SDS011;41275;51.912;4.388;2023-04-25T10:58:41;5.68;;;1.00;;
21546;SDS011;41275;51.912;4.388;2023-04-25T11:04:02;7.63;;;0.80;;
21546;SDS011;41275;51.912;4.388;2023-04-25T11:09:24;4.57;;;1.00;;
21546;SDS011;41275;51.912;4.388;2023-04-25T11:14:45;4.35;;;0.95;;
21546;SDS011;41275;51.912;4.388;2023-04-25T11:20:07;9.00;;;1.10;;
21546;SDS011;41275;51.912;4.388;2023-04-25T11:25:32;6.00;;;1.13;;
21546;SDS011;41275;51.912;4.388;2023-04-25T11:30:53;6.03;;;0.88;;
21546;SDS011;41275;51.912;4.388;2023-04-25T11:36:14;5.43;;;0.83;;
21546;SDS011;41275;51.912;4.388;2023-04-25T11:41:37;3.17;;;0.77;;
21546;SDS011;41275;51.912;4.388;2023-04-25T11:46:58;4.10;;;0.90;;
21546;SDS011;41275;51.912;4.388;2023-04-25T11:52:19;2.92;;;0.80;;
21546;SDS011;41275;51.912;4.388;2023-04-25T11:57:41;3.80;;;0.90;;
21546;SDS011;41275;51.912;4.388;2023-04-25T12:03:04;6.07;;;1.07;;
21546;SDS011;41275;51.912;4.388;2023-04-25T12:08:25;5.28;;;0.85;;
21546;SDS011;41275;51.912;4.388;2023-04-25T12:13:51;7.55;;;1.10;;
21546;SDS011;41275;51.912;4.388;2023-04-25T12:19:14;6.43;;;0.90;;
21546;SDS011;41275;51.912;4.388;2023-04-25T12:24:52;6.35;;;1.10;;
21546;SDS011;41275;51.912;4.388;2023-04-25T12:30:14;7.65;;;0.90;;
21546;SDS011;41275;51.912;4.388;2023-04-25T12:35:35;2.97;;;0.60;;
21546;SDS011;41275;51.912;4.388;2023-04-25T12:40:57;6.72;;;1.08;;
21546;SDS011;41275;51.912;4.388;2023-04-25T12:46:19;6.13;;;1.10;;
21546;SDS011;41275;51.912;4.388;2023-04-25T12:51:40;3.90;;;0.80;;
21546;SDS011;41275;51.912;4.388;2023-04-25T12:57:02;2.85;;;0.60;;
21546;SDS011;41275;51.912;4.388;2023-04-25T13:02:23;5.20;;;0.88;;
21546;SDS011;41275;51.912;4.388;2023-04-25T13:07:44;3.28;;;0.77;;
21546;SDS011;41275;51.912;4.388;2023-04-25T13:13:06;3.93;;;0.83;;
21546;SDS011;41275;51.912;4.388;2023-04-25T13:18:27;4.15;;;0.85;;
21546;SDS011;41275;51.912;4.388;2023-04-25T13:23:49;4.72;;;0.70;;
21546;SDS011;41275;51.912;4.388;2023-04-25T13:29:11;4.67;;;0.80;;
21546;SDS011;41275;51.912;4.388;2023-04-25T13:34:32;4.15;;;0.98;;
21546;SDS011;41275;51.912;4.388;2023-04-25T13:39:53;5.30;;;0.83;;
21546;SDS011;41275;51.912;4.388;2023-04-25T13:45:16;5.47;;;0.63;;
21546;SDS011;41275;51.912;4.388;2023-04-25T13:50:37;5.65;;;0.95;;
21546;SDS011;41275;51.912;4.388;2023-04-25T13:55:59;7.03;;;1.02;;
21546;SDS011;41275;51.912;4.388;2023-04-25T14:01:20;3.92;;;1.08;;
21546;SDS011;41275;51.912;4.388;2023-04-25T14:06:41;5.57;;;1.10;;
21546;SDS011;41275;51.912;4.388;2023-04-25T14:12:03;4.85;;;0.98;;
21546;SDS011;41275;51.912;4.388;2023-04-25T14:17:24;4.90;;;1.00;;
21546;SDS011;41275;51.912;4.388;2023-04-25T14:22:46;6.63;;;1.10;;
21546;SDS011;41275;51.912;4.388;2023-04-25T14:28:07;3.47;;;0.88;;
21546;SDS011;41275;51.912;4.388;2023-04-25T14:33:29;4.25;;;1.00;;
21546;SDS011;41275;51.912;4.388;2023-04-25T14:38:51;4.30;;;1.10;;
21546;SDS011;41275;51.912;4.388;2023-04-25T14:44:12;4.53;;;1.00;;
21546;SDS011;41275;51.912;4.388;2023-04-25T14:49:36;6.25;;;1.00;;
21546;SDS011;41275;51.912;4.388;2023-04-25T14:55:00;4.88;;;0.90;;
21546;SDS011;41275;51.912;4.388;2023-04-25T15:00:25;3.25;;;0.90;;
21546;SDS011;41275;51.912;4.388;2023-04-25T15:05:47;5.43;;;0.80;;
21546;SDS011;41275;51.912;4.388;2023-04-25T15:11:08;5.03;;;0.93;;
21546;SDS011;41275;51.912;4.388;2023-04-25T15:16:31;5.57;;;1.00;;
21546;SDS011;41275;51.912;4.388;2023-04-25T15:21:52;7.20;;;1.13;;
21546;SDS011;41275;51.912;4.388;2023-04-25T15:27:14;4.67;;;1.00;;
21546;SDS011;41275;51.912;4.388;2023-04-25T15:32:35;5.40;;;1.13;;
21546;SDS011;41275;51.912;4.388;2023-04-25T15:37:56;3.13;;;1.08;;
21546;SDS011;41275;51.912;4.388;2023-04-25T15:43:17;2.10;;;0.80;;
21546;SDS011;41275;51.912;4.388;2023-04-25T15:48:39;2.85;;;1.00;;
21546;SDS011;41275;51.912;4.388;2023-04-25T15:54:00;6.67;;;1.10;;
21546;SDS011;41275;51.912;4.388;2023-04-25T15:59:23;7.40;;;1.10;;
21546;SDS011;41275;51.912;4.388;2023-04-25T16:04:45;3.95;;;0.98;;
21546;SDS011;41275;51.912;4.388;2023-04-25T16:10:07;4.75;;;0.90;;
21546;SDS011;41275;51.912;4.388;2023-04-25T16:15:29;3.25;;;0.90;;
21546;SDS011;41275;51.912;4.388;2023-04-25T16:20:52;4.37;;;1.13;;
21546;SDS011;41275;51.912;4.388;2023-04-25T16:26:13;3.43;;;0.90;;
21546;SDS011;41275;51.912;4.388;2023-04-25T16:31:34;6.77;;;0.90;;
21546;SDS011;41275;51.912;4.388;2023-04-25T16:36:56;4.22;;;0.77;;
21546;SDS011;41275;51.912;4.388;2023-04-25T16:42:17;4.53;;;1.00;;
21546;SDS011;41275;51.912;4.388;2023-04-25T16:47:39;8.15;;;1.73;;
21546;SDS011;41275;51.912;4.388;2023-04-25T16:53:00;4.25;;;1.10;;
21546;SDS011;41275;51.912;4.388;2023-04-25T16:58:21;4.63;;;1.10;;
21546;SDS011;41275;51.912;4.388;2023-04-25T17:03:43;6.35;;;1.08;;
21546;SDS011;41275;51.912;4.388;2023-04-25T17:09:04;5.63;;;1.60;;
21546;SDS011;41275;51.912;4.388;2023-04-25T17:14:25;4.50;;;1.00;;
21546;SDS011;41275;51.912;4.388;2023-04-25T17:19:47;3.73;;;1.10;;
21546;SDS011;41275;51.912;4.388;2023-04-25T17:25:08;5.43;;;1.10;;
21546;SDS011;41275;51.912;4.388;2023-04-25T17:30:29;5.40;;;1.33;;
21546;SDS011;41275;51.912;4.388;2023-04-25T17:35:52;4.75;;;1.30;;
21546;SDS011;41275;51.912;4.388;2023-04-25T17:41:13;3.88;;;1.08;;
21546;SDS011;41275;51.912;4.388;2023-04-25T17:46:35;5.27;;;1.23;;
21546;SDS011;41275;51.912;4.388;2023-04-25T17:51:57;3.90;;;1.00;;
21546;SDS011;41275;51.912;4.388;2023-04-25T17:57:18;5.53;;;1.10;;
21546;SDS011;41275;51.912;4.388;2023-04-25T18:02:42;4.03;;;0.90;;
21546;SDS011;41275;51.912;4.388;2023-04-25T18:08:05;3.47;;;0.80;;
21546;SDS011;41275;51.912;4.388;2023-04-25T18:13:26;3.85;;;0.75;;
21546;SDS011;41275;51.912;4.388;2023-04-25T18:18:47;4.87;;;1.30;;
21546;SDS011;41275;51.912;4.388;2023-04-25T18:24:15;7.60;;;1.90;;
21546;SDS011;41275;51.912;4.388;2023-04-25T18:29:39;5.65;;;1.30;;
21546;SDS011;41275;51.912;4.388;2023-04-25T18:35:03;4.70;;;1.33;;
21546;SDS011;41275;51.912;4.388;2023-04-25T18:40:25;5.73;;;1.60;;
21546;SDS011;41275;51.912;4.388;2023-04-25T18:45:46;4.07;;;1.30;;
21546;SDS011;41275;51.912;4.388;2023-04-25T18:51:08;6.43;;;1.20;;
21546;SDS011;41275;51.912;4.388;2023-04-25T18:56:29;7.60;;;1.50;;
21546;SDS011;41275;51.912;4.388;2023-04-25T19:01:50;5.28;;;1.42;;
21546;SDS011;41275;51.912;4.388;2023-04-25T19:07:13;6.33;;;1.53;;
21546;SDS011;41275;51.912;4.388;2023-04-25T19:12:34;6.50;;;1.83;;
21546;SDS011;41275;51.912;4.388;2023-04-25T19:17:55;8.90;;;2.20;;
21546;SDS011;41275;51.912;4.388;2023-04-25T19:23:17;10.88;;;2.17;;
21546;SDS011;41275;51.912;4.388;2023-04-25T19:28:38;9.35;;;2.20;;
21546;SDS011;41275;51.912;4.388;2023-04-25T19:34:05;6.30;;;2.08;;
21546;SDS011;41275;51.912;4.388;2023-04-25T19:39:27;7.22;;;2.00;;
21546;SDS011;41275;51.912;4.388;2023-04-25T19:44:51;6.90;;;2.00;;
21546;SDS011;41275;51.912;4.388;2023-04-25T19:50:13;6.40;;;1.63;;
21546;SDS011;41275;51.912;4.388;2023-04-25T19:55:34;10.07;;;2.30;;
21546;SDS011;41275;51.912;4.388;2023-04-25T20:00:55;5.90;;;1.67;;
21546;SDS011;41275;51.912;4.388;2023-04-25T20:06:19;11.17;;;2.10;;
21546;SDS011;41275;51.912;4.388;2023-04-25T20:11:41;10.30;;;2.83;;
21546;SDS011;41275;51.912;4.388;2023-04-25T20:17:02;9.63;;;2.20;;
21546;SDS011;41275;51.912;4.388;2023-04-25T20:22:24;7.60;;;2.05;;
21546;SDS011;41275;51.912;4.388;2023-04-25T20:27:48;7.88;;;2.05;;
21546;SDS011;41275;51.912;4.388;2023-04-25T20:33:09;10.32;;;2.03;;
21546;SDS011;41275;51.912;4.388;2023-04-25T20:38:30;7.70;;;2.10;;
21546;SDS011;41275;51.912;4.388;2023-04-25T20:43:52;10.07;;;2.70;;
21546;SDS011;41275;51.912;4.388;2023-04-25T20:49:14;9.77;;;2.00;;
21546;SDS011;41275;51.912;4.388;2023-04-25T20:54:35;8.20;;;2.20;;
21546;SDS011;41275;51.912;4.388;2023-04-25T20:59:57;9.23;;;2.42;;
21546;SDS011;41275;51.912;4.388;2023-04-25T21:05:18;8.98;;;2.40;;
21546;SDS011;41275;51.912;4.388;2023-04-25T21:10:42;9.25;;;2.38;;
21546;SDS011;41275;51.912;4.388;2023-04-25T21:16:03;7.97;;;2.58;;
21546;SDS011;41275;51.912;4.388;2023-04-25T21:21:25;9.10;;;2.10;;
21546;SDS011;41275;51.912;4.388;2023-04-25T21:26:47;8.13;;;2.50;;
21546;SDS011;41275;51.912;4.388;2023-04-25T21:32:08;7.75;;;2.47;;
21546;SDS011;41275;51.912;4.388;2023-04-25T21:37:29;13.27;;;2.72;;
21546;SDS011;41275;51.912;4.388;2023-04-25T21:42:50;9.10;;;2.63;;
21546;SDS011;41275;51.912;4.388;2023-04-25T21:48:13;5.93;;;1.73;;
21546;SDS011;41275;51.912;4.388;2023-04-25T21:53:34;7.27;;;1.77;;
21546;SDS011;41275;51.912;4.388;2023-04-25T21:58:56;4.72;;;1.67;;
21546;SDS011;41275;51.912;4.388;2023-04-25T22:04:17;7.35;;;1.40;;
21546;SDS011;41275;51.912;4.388;2023-04-25T22:09:38;6.45;;;1.67;;
21546;SDS011;41275;51.912;4.388;2023-04-25T22:15:00;6.78;;;1.90;;
21546;SDS011;41275;51.912;4.388;2023-04-25T22:20:21;4.53;;;1.60;;
21546;SDS011;41275;51.912;4.388;2023-04-25T22:25:45;4.20;;;1.92;;
21546;SDS011;41275;51.912;4.388;2023-04-25T22:31:07;4.00;;;1.70;;
21546;SDS011;41275;51.912;4.388;2023-04-25T22:36:29;5.80;;;1.90;;
21546;SDS011;41275;51.912;4.388;2023-04-25T22:41:50;6.72;;;2.03;;
21546;SDS011;41275;51.912;4.388;2023-04-25T22:47:11;9.18;;;2.10;;
21546;SDS011;41275;51.912;4.388;2023-04-25T22:52:32;5.38;;;2.08;;
21546;SDS011;41275;51.912;4.388;2023-04-25T22:57:54;7.10;;;1.90;;
21546;SDS011;41275;51.912;4.388;2023-04-25T23:03:16;7.03;;;2.40;;
21546;SDS011;41275;51.912;4.388;2023-04-25T23:08:38;8.20;;;2.20;;
21546;SDS011;41275;51.912;4.388;2023-04-25T23:14:01;7.20;;;2.45;;
21546;SDS011;41275;51.912;4.388;2023-04-25T23:19:23;6.38;;;2.30;;
21546;SDS011;41275;51.912;4.388;2023-04-25T23:24:44;7.55;;;2.58;;
21546;SDS011;41275;51.912;4.388;2023-04-25T23:30:06;6.95;;;2.50;;
21546;SDS011;41275;51.912;4.388;2023-04-25T23:35:28;6.33;;;2.43;;
21546;SDS011;41275;51.912;4.388;2023-04-25T23:40:49;7.03;;;2.20;;
21546;SDS011;41275;51.912;4.388;2023-04-25T23:46:10;9.05;;;2.10;;
21546;SDS011;41275;51.912;4.388;2023-04-25T23:51:32;7.47;;;2.30;;
21546;SDS011;41275;51.912;4.388;2023-04-25T23:56:53;8.37;;;2.30;;
